Time;durP1;ratioP1;P1;durP2;ratioP2;P2;SDS_P1;SDS_P2;PMS_P1;PMS_P2;Temp;Humidity;BMP_temperature;BMP_pressure;BME280_temperature;BME280_humidity;BME280_pressure;Samples;Min_cycle;Max_cycle;Signal;HPM_P1;HPM_P2
2022/04/15 00:01:21;;;;;;;46.50;28.80;;;;;;;11.92;57.16;100240.70;128360;1288;99392;-76
2022/04/15 00:04:24;;;;;;;44.00;28.80;;;;;;;11.90;56.31;100243.10;128248;1288;100564;-77
2022/04/15 00:07:27;;;;;;;44.90;29.00;;;;;;;11.88;57.51;100246.78;128139;1288;99407;-76
2022/04/15 00:10:30;;;;;;;49.00;29.10;;;;;;;11.86;57.43;100245.23;128235;1288;100551;-76
2022/04/15 00:13:33;;;;;;;43.70;28.10;;;;;;;11.84;58.51;100239.79;128209;1288;99517;-76
2022/04/15 00:16:36;;;;;;;45.60;28.40;;;;;;;11.82;57.50;100239.96;128385;1288;99453;-76
2022/04/15 00:19:38;;;;;;;42.70;28.10;;;;;;;11.79;57.62;100238.53;128871;1288;100537;-77
2022/04/15 00:22:41;;;;;;;40.80;27.10;;;;;;;11.77;57.40;100241.39;128389;1288;424039;-76
2022/04/15 00:25:44;;;;;;;41.40;28.00;;;;;;;11.74;58.32;100248.06;128629;1288;99797;-77
2022/04/15 00:28:47;;;;;;;44.20;27.10;;;;;;;11.71;58.63;100240.23;128468;1288;101029;-76
2022/04/15 00:31:49;;;;;;;42.00;27.90;;;;;;;11.70;58.51;100239.06;128541;1288;99375;-76
2022/04/15 00:34:52;;;;;;;42.00;27.90;;;;;;;11.72;58.20;100239.80;129053;1288;108563;-77
2022/04/15 00:37:55;;;;;;;45.40;28.30;;;;;;;11.74;58.69;100243.48;129062;1288;99861;-76
2022/04/15 00:40:57;;;;;;;45.00;28.90;;;;;;;11.74;58.95;100243.11;129104;1288;99382;-77
2022/04/15 00:44:00;;;;;;;43.40;29.20;;;;;;;11.71;59.19;100250.89;129251;1288;99688;-77
2022/04/15 00:47:09;;;;;;;45.30;29.30;;;;;;;11.68;59.32;100252.52;129203;1288;100544;-77
2022/04/15 00:50:13;;;;;;;45.60;29.50;;;;;;;11.64;59.90;100245.80;128321;1288;108188;-76
2022/04/15 00:53:22;;;;;;;43.40;29.70;;;;;;;11.58;59.94;100243.31;128493;1288;108512;-75
2022/04/15 00:56:29;;;;;;;45.70;29.40;;;;;;;11.53;60.15;100241.39;128058;1288;108897;-75
2022/04/15 00:59:33;;;;;;;46.90;29.90;;;;;;;11.49;60.01;100241.83;128364;1288;108848;-75
2022/04/15 01:02:37;;;;;;;43.20;30.00;;;;;;;11.46;59.74;100242.68;128199;1288;109060;-75
2022/04/15 01:05:40;;;;;;;41.10;27.30;;;;;;;11.42;60.67;100253.55;128251;1288;108659;-74
2022/04/15 01:08:45;;;;;;;39.20;25.10;;;;;;;11.38;59.89;100259.81;128317;1288;108825;-75
2022/04/15 01:11:50;;;;;;;42.80;26.50;;;;;;;11.37;60.31;100254.60;128177;1288;108882;-77
2022/04/15 01:14:54;;;;;;;39.70;27.20;;;;;;;11.39;60.20;100254.04;128123;1288;108952;-78
2022/04/15 01:17:58;;;;;;;40.20;27.30;;;;;;;11.43;59.63;100255.84;128194;1288;108770;-78
2022/04/15 01:21:01;;;;;;;41.70;27.70;;;;;;;11.46;60.15;100251.90;128203;1287;108829;-76
2022/04/15 01:24:05;;;;;;;40.10;27.10;;;;;;;11.47;59.67;100249.73;128313;1288;99998;-75
2022/04/15 01:27:08;;;;;;;37.50;25.70;;;;;;;11.46;60.31;100247.96;128363;1288;108660;-76
2022/04/15 01:30:13;;;;;;;37.90;25.70;;;;;;;11.45;59.98;100253.64;128003;1288;99564;-75
2022/04/15 01:33:16;;;;;;;38.30;25.90;;;;;;;11.44;59.99;100254.48;128176;1288;108783;-75
2022/04/15 01:36:19;;;;;;;34.80;24.40;;;;;;;11.43;60.46;100255.77;128088;1288;108797;-77
2022/04/15 01:39:22;;;;;;;38.90;24.90;;;;;;;11.42;60.44;100261.84;128307;1288;100572;-76
2022/04/15 01:42:25;;;;;;;33.70;24.10;;;;;;;11.38;60.81;100265.48;128079;1288;100584;-76
2022/04/15 01:45:28;;;;;;;35.30;22.90;;;;;;;11.36;60.92;100262.30;128174;1288;99408;-76
2022/04/15 01:48:31;;;;;;;32.80;20.10;;;;;;;11.35;60.93;100263.16;128023;1288;99510;-74
2022/04/15 01:51:35;;;;;;;31.70;21.40;;;;;;;11.36;60.75;100263.43;128366;1288;99448;-75
2022/04/15 01:54:38;;;;;;;34.20;22.50;;;;;;;11.39;61.57;100263.32;128126;1288;108990;-75
2022/04/15 01:57:40;;;;;;;31.00;22.40;;;;;;;11.38;62.46;100271.91;128079;1288;99817;-78
2022/04/15 02:00:43;;;;;;;33.20;22.60;;;;;;;11.34;62.70;100271.97;128114;1290;99461;-79
2022/04/15 02:03:46;;;;;;;33.70;21.80;;;;;;;11.31;62.94;100275.89;128271;1288;99469;-74
2022/04/15 02:06:49;;;;;;;33.40;21.70;;;;;;;11.27;62.98;100267.28;128209;1288;99877;-74
2022/04/15 02:09:51;;;;;;;29.10;20.80;;;;;;;11.22;63.41;100266.52;128235;1288;99464;-74
2022/04/15 02:12:54;;;;;;;28.40;21.30;;;;;;;11.17;63.47;100262.71;128249;1288;99529;-75
2022/04/15 02:15:57;;;;;;;28.80;18.90;;;;;;;11.13;64.03;100261.58;128313;1288;99369;-74
2022/04/15 02:18:59;;;;;;;27.30;18.40;;;;;;;11.09;63.66;100258.55;128241;1288;99394;-76
2022/04/15 02:22:02;;;;;;;25.60;18.80;;;;;;;11.10;62.97;100252.55;128363;1287;99409;-75
2022/04/15 02:25:07;;;;;;;25.70;18.20;;;;;;;11.16;62.65;100249.12;128072;1288;99402;-75
2022/04/15 02:28:10;;;;;;;26.20;18.90;;;;;;;11.22;64.12;100250.66;128402;1288;99372;-75
2022/04/15 02:31:13;;;;;;;30.90;17.90;;;;;;;11.22;64.30;100254.23;128312;1288;99371;-78
2022/04/15 02:34:15;;;;;;;28.50;19.20;;;;;;;11.20;63.62;100242.64;128161;1288;100611;-75
2022/04/15 02:37:18;;;;;;;28.90;18.50;;;;;;;11.19;63.93;100239.33;128250;1288;99824;-78
2022/04/15 02:40:21;;;;;;;24.80;17.70;;;;;;;11.18;64.18;100232.54;128390;1288;99802;-74
2022/04/15 02:43:31;;;;;;;24.40;17.00;;;;;;;11.16;64.13;100235.17;128428;1288;99404;-76
2022/04/15 02:46:34;;;;;;;24.20;16.40;;;;;;;11.15;64.73;100250.45;128209;1287;99403;-75
2022/04/15 02:49:38;;;;;;;22.70;16.20;;;;;;;11.15;64.52;100251.38;128434;1288;99909;-76
2022/04/15 02:52:42;;;;;;;23.10;16.90;;;;;;;11.18;65.06;100254.64;128360;1288;100540;-77
2022/04/15 02:55:44;;;;;;;27.30;18.50;;;;;;;11.21;64.50;100257.17;128269;1288;99388;-73
2022/04/15 02:58:47;;;;;;;24.40;17.50;;;;;;;11.25;64.26;100254.65;128315;1287;99448;-73
2022/04/15 03:01:50;;;;;;;26.00;18.80;;;;;;;11.26;64.45;100252.89;128220;1288;99382;-77
2022/04/15 03:04:52;;;;;;;26.90;18.20;;;;;;;11.24;65.14;100256.68;128444;1288;99437;-77
2022/04/15 03:07:55;;;;;;;24.70;18.10;;;;;;;11.17;65.43;100262.88;128262;1288;100429;-76
2022/04/15 03:11:00;;;;;;;25.50;17.60;;;;;;;11.10;65.75;100265.96;128445;1288;100606;-77
2022/04/15 03:14:02;;;;;;;24.30;16.20;;;;;;;11.04;65.04;100262.96;128846;1287;100421;-76
2022/04/15 03:17:05;;;;;;;24.60;17.70;;;;;;;11.07;65.17;100266.98;128560;1288;99380;-76
2022/04/15 03:20:11;;;;;;;21.10;16.20;;;;;;;11.11;65.90;100268.02;128144;1288;99366;-76
2022/04/15 03:23:13;;;;;;;20.00;15.30;;;;;;;11.14;64.96;100262.46;128395;1288;100426;-77
2022/04/15 03:26:16;;;;;;;23.30;17.40;;;;;;;11.21;64.84;100261.04;128286;1288;99414;-74
2022/04/15 03:29:19;;;;;;;25.50;17.20;;;;;;;11.28;64.67;100265.52;128337;1288;99394;-74
2022/04/15 03:32:21;;;;;;;23.10;17.60;;;;;;;11.32;64.74;100266.38;128184;1288;99497;-74
2022/04/15 03:35:24;;;;;;;22.40;16.60;;;;;;;11.34;64.58;100258.88;128366;1287;100638;-74
2022/04/15 03:38:26;;;;;;;22.40;16.40;;;;;;;11.34;64.31;100252.84;128372;1288;99399;-80
2022/04/15 03:41:29;;;;;;;22.50;16.30;;;;;;;11.32;64.77;100254.02;128542;1288;99811;-80
2022/04/15 03:44:32;;;;;;;22.20;15.80;;;;;;;11.28;65.23;100258.97;128544;1288;100165;-80
2022/04/15 03:47:34;;;;;;;33.40;20.60;;;;;;;11.24;65.54;100260.56;128362;1288;99422;-80
2022/04/15 03:50:37;;;;;;;23.70;16.90;;;;;;;11.24;65.34;100262.06;128383;1288;99371;-81
2022/04/15 03:53:40;;;;;;;25.10;18.30;;;;;;;11.25;65.89;100262.77;128274;1288;99330;-80
2022/04/15 03:56:43;;;;;;;25.80;17.50;;;;;;;11.24;65.72;100266.45;128212;1290;100513;-80
2022/04/15 03:59:45;;;;;;;26.00;18.40;;;;;;;11.23;65.88;100270.88;128232;1290;99358;-80
2022/04/15 04:02:50;;;;;;;23.70;17.30;;;;;;;11.23;66.10;100271.93;128805;1288;99300;-78
2022/04/15 04:05:53;;;;;;;58.30;30.60;;;;;;;11.24;65.73;100279.48;129017;1287;102389;-79
2022/04/15 04:08:56;;;;;;;31.30;20.00;;;;;;;11.25;65.46;100277.42;128942;1287;99389;-78
2022/04/15 04:11:58;;;;;;;24.00;17.10;;;;;;;11.27;66.31;100279.67;128709;1287;99366;-79
2022/04/15 04:15:01;;;;;;;23.50;17.40;;;;;;;11.27;65.63;100278.77;128682;1287;100544;-79
2022/04/15 04:18:04;;;;;;;29.50;21.20;;;;;;;11.32;66.06;100278.14;128571;1287;99376;-79
2022/04/15 04:21:08;;;;;;;25.60;19.20;;;;;;;11.35;66.26;100280.92;128545;1287;100088;-79
2022/04/15 04:24:12;;;;;;;25.30;19.40;;;;;;;11.34;66.15;100284.42;128549;1287;99320;-80
2022/04/15 04:27:15;;;;;;;26.80;19.60;;;;;;;11.33;66.24;100291.73;128588;1287;100548;-79
2022/04/15 04:30:18;;;;;;;29.10;20.60;;;;;;;11.30;66.77;100293.45;128510;1287;99374;-79
2022/04/15 04:33:20;;;;;;;28.30;22.10;;;;;;;11.25;66.84;100297.32;128587;1287;100253;-79
2022/04/15 04:36:23;;;;;;;29.10;21.10;;;;;;;11.20;66.99;100300.13;128366;1287;99381;-78
2022/04/15 04:39:29;;;;;;;30.00;19.60;;;;;;;11.16;67.28;100302.73;128464;1288;99349;-76
2022/04/15 04:42:31;;;;;;;30.10;22.90;;;;;;;11.15;67.43;100303.84;128462;1287;125312;-75
2022/04/15 04:45:35;;;;;;;33.10;23.80;;;;;;;11.15;68.12;100304.44;128503;1287;99376;-77
2022/04/15 04:48:38;;;;;;;34.50;24.70;;;;;;;11.14;67.98;100306.33;128385;1287;99341;-77
2022/04/15 04:51:41;;;;;;;31.80;23.40;;;;;;;11.11;67.58;100301.59;128399;1287;100278;-76
2022/04/15 04:54:44;;;;;;;31.90;24.30;;;;;;;11.12;68.19;100301.58;128414;1287;100426;-77
2022/04/15 04:57:47;;;;;;;33.30;22.90;;;;;;;11.07;69.45;100304.23;128464;1287;99792;-76
2022/04/15 05:00:50;;;;;;;31.70;23.70;;;;;;;10.99;69.76;100307.48;128643;1287;100506;-77
2022/04/15 05:03:52;;;;;;;31.50;24.20;;;;;;;10.93;70.50;100314.78;128432;1287;100458;-76
2022/04/15 05:06:56;;;;;;;32.30;24.60;;;;;;;10.88;70.35;100320.13;128860;1287;100543;-77
2022/04/15 05:09:59;;;;;;;38.10;26.50;;;;;;;10.90;69.83;100320.61;128926;1288;99398;-77
2022/04/15 05:13:01;;;;;;;63.90;37.20;;;;;;;10.91;70.42;100324.64;128348;1288;99367;-78
2022/04/15 05:16:05;;;;;;;41.10;24.60;;;;;;;10.85;71.30;100334.15;128454;1287;100538;-77
2022/04/15 05:19:08;;;;;;;40.90;24.20;;;;;;;10.81;70.34;100334.71;128391;1288;99391;-77
2022/04/15 05:22:11;;;;;;;35.70;24.60;;;;;;;10.82;70.27;100336.77;128333;1288;100422;-74
2022/04/15 05:25:13;;;;;;;34.60;26.70;;;;;;;10.90;70.04;100336.30;128407;1288;100281;-74
2022/04/15 05:28:16;;;;;;;42.10;30.70;;;;;;;11.00;69.69;100334.75;128137;1288;99418;-76
2022/04/15 05:31:19;;;;;;;37.00;27.30;;;;;;;11.14;69.69;100340.67;128367;1288;99926;-75
2022/04/15 05:34:21;;;;;;;43.40;28.60;;;;;;;11.19;69.73;100343.48;128365;1288;99441;-77
2022/04/15 05:37:24;;;;;;;61.70;37.70;;;;;;;11.23;69.68;100346.76;128974;1288;100519;-82
2022/04/15 05:40:28;;;;;;;57.90;39.20;;;;;;;11.25;69.70;100347.71;128534;1287;100086;-78
2022/04/15 05:43:30;;;;;;;58.20;38.20;;;;;;;11.29;69.86;100349.50;128319;1288;112714;-80
2022/04/15 05:46:34;;;;;;;57.70;37.80;;;;;;;11.35;70.00;100351.19;128445;1288;99286;-79
2022/04/15 05:49:37;;;;;;;66.50;44.40;;;;;;;11.36;69.65;100348.92;128417;1288;113790;-79
2022/04/15 05:52:39;;;;;;;130.40;75.70;;;;;;;11.40;69.92;100354.55;128429;1288;99691;-79
2022/04/15 05:55:42;;;;;;;71.60;41.00;;;;;;;11.42;69.64;100351.20;128371;1288;99482;-79
2022/04/15 05:58:45;;;;;;;66.70;37.80;;;;;;;11.46;69.43;100353.27;128193;1288;99382;-82
2022/04/15 06:01:48;;;;;;;47.20;32.40;;;;;;;11.53;69.58;100351.55;128501;1287;100319;-81
2022/04/15 06:04:51;;;;;;;57.00;37.10;;;;;;;11.57;69.72;100352.64;128882;1288;99475;-83
2022/04/15 06:07:54;;;;;;;51.50;34.00;;;;;;;11.58;69.66;100345.09;128516;1288;99465;-82
2022/04/15 06:10:57;;;;;;;60.40;39.20;;;;;;;11.61;69.64;100340.17;128593;1288;99452;-87
2022/04/15 06:14:01;;;;;;;109.90;64.30;;;;;;;11.63;69.66;100341.23;128607;1288;100669;-85
2022/04/15 06:17:04;;;;;;;65.60;41.40;;;;;;;11.62;69.59;100349.40;128497;1288;113604;-77
2022/04/15 06:20:10;;;;;;;40.40;28.00;;;;;;;11.57;71.29;100358.02;128454;1288;113831;-82
2022/04/15 06:23:13;;;;;;;43.80;29.50;;;;;;;11.39;71.70;100366.95;128522;1288;112925;-78
2022/04/15 06:26:16;;;;;;;42.50;29.10;;;;;;;11.31;71.51;100370.42;128358;1288;99921;-78
2022/04/15 06:29:19;;;;;;;105.70;56.50;;;;;;;11.35;71.16;100363.95;128558;1288;99478;-79
2022/04/15 06:32:21;;;;;;;81.60;47.30;;;;;;;11.43;71.35;100370.69;128801;1287;99343;-77
2022/04/15 06:35:24;;;;;;;62.20;37.20;;;;;;;11.44;72.22;100364.52;128484;1288;100538;-82
2022/04/15 06:38:27;;;;;;;41.00;27.20;;;;;;;11.42;72.79;100364.36;128560;1288;100618;-81
2022/04/15 06:41:29;;;;;;;40.10;25.90;;;;;;;11.32;72.61;100364.35;128921;1288;99450;-76
2022/04/15 06:44:36;;;;;;;34.10;25.90;;;;;;;11.31;72.89;100358.89;128571;1288;99775;-73
2022/04/15 06:47:39;;;;;;;34.30;24.50;;;;;;;11.33;73.41;100352.77;128419;1288;108766;-76
2022/04/15 06:50:41;;;;;;;35.10;26.50;;;;;;;11.39;72.56;100355.39;128316;1288;100689;-76
2022/04/15 06:53:44;;;;;;;34.40;26.00;;;;;;;11.46;72.87;100360.27;128380;1288;100638;-76
2022/04/15 06:56:47;;;;;;;35.40;24.70;;;;;;;11.56;73.25;100365.63;128365;1288;99368;-77
2022/04/15 06:59:50;;;;;;;41.10;26.60;;;;;;;11.68;73.03;100370.82;128237;1288;99423;-76
2022/04/15 07:02:52;;;;;;;37.00;25.90;;;;;;;11.83;73.16;100374.30;128395;1287;100536;-78
2022/04/15 07:05:55;;;;;;;32.90;25.50;;;;;;;12.02;73.60;100375.52;128200;1288;100548;-79
2022/04/15 07:08:58;;;;;;;39.20;27.30;;;;;;;12.19;73.97;100373.02;128284;1288;100422;-75
2022/04/15 07:12:01;;;;;;;34.40;26.50;;;;;;;12.23;73.48;100369.63;128407;1288;99449;-74
2022/04/15 07:15:05;;;;;;;34.30;24.60;;;;;;;12.30;73.26;100360.99;128264;1288;99683;-75
2022/04/15 07:18:07;;;;;;;32.40;24.30;;;;;;;12.42;73.78;100362.98;128641;1288;100095;-74
2022/04/15 07:21:11;;;;;;;31.10;22.40;;;;;;;12.45;73.71;100361.21;128456;1288;99359;-74
2022/04/15 07:24:14;;;;;;;34.00;25.10;;;;;;;12.58;73.31;100358.80;128326;1288;100542;-76
2022/04/15 07:27:17;;;;;;;38.10;27.40;;;;;;;12.64;73.80;100365.34;128294;1288;99387;-74
2022/04/15 07:30:20;;;;;;;31.10;24.60;;;;;;;12.68;73.80;100364.32;128359;1288;99346;-75
2022/04/15 07:33:22;;;;;;;33.80;23.90;;;;;;;12.64;73.79;100365.09;128298;1288;100479;-76
2022/04/15 07:36:45;;;;;;;29.40;22.10;;;;;;;12.61;74.15;100367.45;128374;1288;99472;-76
2022/04/15 07:39:47;;;;;;;32.70;23.60;;;;;;;12.60;73.79;100371.95;128421;1288;99375;-76
2022/04/15 07:42:50;;;;;;;32.20;23.90;;;;;;;12.67;73.67;100368.59;128430;1288;100564;-75
2022/04/15 07:45:53;;;;;;;30.50;23.20;;;;;;;12.80;73.94;100373.23;128198;1288;100560;-76
2022/04/15 07:48:55;;;;;;;31.60;23.90;;;;;;;12.96;73.58;100372.06;128207;1288;99431;-75
2022/04/15 07:51:58;;;;;;;32.50;24.00;;;;;;;13.03;73.88;100374.17;128264;1288;100558;-72
2022/04/15 07:55:01;;;;;;;31.30;22.00;;;;;;;13.05;73.93;100373.17;128419;1288;99425;-72
2022/04/15 07:58:03;;;;;;;31.50;22.20;;;;;;;13.07;73.52;100376.56;128514;1287;99784;-73
2022/04/15 08:01:07;;;;;;;28.40;21.30;;;;;;;12.94;74.06;100379.75;128431;1288;100177;-73
2022/04/15 08:04:09;;;;;;;26.00;20.70;;;;;;;12.77;73.69;100386.39;128460;1288;100241;-73
2022/04/15 08:07:12;;;;;;;30.90;22.40;;;;;;;12.64;74.20;100390.98;128203;1288;99348;-74
2022/04/15 08:10:15;;;;;;;26.20;21.20;;;;;;;12.51;73.78;100390.36;128207;1288;99359;-73
2022/04/15 08:13:18;;;;;;;28.40;21.40;;;;;;;12.51;74.56;100390.00;128116;1288;99344;-75
2022/04/15 08:16:22;;;;;;;28.40;21.40;;;;;;;12.53;74.26;100389.31;128240;1288;99969;-74
2022/04/15 08:19:25;;;;;;;31.30;21.50;;;;;;;12.53;74.97;100391.38;128328;1288;99516;-74
2022/04/15 08:22:28;;;;;;;30.60;23.10;;;;;;;12.51;75.02;100387.13;128194;1288;100153;-73
2022/04/15 08:25:30;;;;;;;30.20;23.50;;;;;;;12.53;74.64;100388.21;128346;1288;99357;-74
2022/04/15 08:28:33;;;;;;;35.10;25.50;;;;;;;12.58;75.04;100388.18;128369;1288;99481;-79
2022/04/15 08:31:36;;;;;;;34.00;24.10;;;;;;;12.61;75.34;100398.46;128279;1288;99341;-75
2022/04/15 08:34:40;;;;;;;29.80;22.60;;;;;;;12.61;74.81;100397.89;128356;1288;99375;-76
2022/04/15 08:37:42;;;;;;;28.60;22.80;;;;;;;12.78;74.76;100397.88;128481;1288;99355;-75
2022/04/15 08:40:49;;;;;;;31.00;22.90;;;;;;;12.82;75.28;100398.75;128571;1288;100345;-75
2022/04/15 08:43:53;;;;;;;34.40;28.10;;;;;;;12.88;74.97;100396.45;128416;1288;100553;-75
2022/04/15 08:46:58;;;;;;;31.50;24.90;;;;;;;12.95;75.27;100398.04;128462;1288;100315;-75
2022/04/15 08:50:01;;;;;;;30.40;23.20;;;;;;;12.87;75.41;100403.34;128435;1286;100208;-75
2022/04/15 08:53:04;;;;;;;29.80;23.30;;;;;;;12.76;75.43;100402.73;128342;1288;100538;-75
2022/04/15 08:56:07;;;;;;;26.80;22.80;;;;;;;12.70;76.61;100401.44;128317;1288;99369;-74
2022/04/15 08:59:10;;;;;;;29.30;23.60;;;;;;;12.68;76.24;100404.38;128187;1288;100230;-74
2022/04/15 09:02:14;;;;;;;30.50;24.00;;;;;;;12.68;75.77;100405.71;128284;1288;99694;-75
2022/04/15 09:05:21;;;;;;;32.30;25.80;;;;;;;12.72;75.98;100406.35;128460;1288;100264;-74
2022/04/15 09:08:25;;;;;;;30.50;23.80;;;;;;;12.62;76.65;100408.91;127845;1288;100157;-76
2022/04/15 09:11:32;;;;;;;27.80;22.90;;;;;;;12.47;76.40;100414.48;128389;1288;100452;-77
2022/04/15 09:14:34;;;;;;;28.50;22.70;;;;;;;12.45;77.11;100419.77;128487;1288;99342;-77
2022/04/15 09:17:38;;;;;;;49.30;37.00;;;;;;;12.46;76.13;100412.83;128395;1288;100425;-79
2022/04/15 09:20:41;;;;;;;29.90;24.60;;;;;;;12.54;77.21;100413.30;128399;1288;100015;-85
2022/04/15 09:23:47;;;;;;;29.30;24.70;;;;;;;12.51;77.86;100414.99;128681;1288;100538;-77
2022/04/15 09:26:50;;;;;;;28.90;22.70;;;;;;;12.51;77.83;100414.06;128348;1288;99357;-77
2022/04/15 09:29:54;;;;;;;28.10;22.30;;;;;;;12.57;78.23;100412.10;128263;1288;100262;-79
2022/04/15 09:33:01;;;;;;;29.20;22.60;;;;;;;12.70;77.67;100406.99;128314;1288;99923;-78
2022/04/15 09:36:05;;;;;;;28.10;23.00;;;;;;;12.92;77.69;100409.59;128465;1288;100268;-77
2022/04/15 09:39:10;;;;;;;30.00;23.40;;;;;;;13.09;76.94;100400.80;128420;1288;102201;-77
2022/04/15 09:42:14;;;;;;;28.80;23.00;;;;;;;13.19;76.62;100406.91;128486;1288;100215;-77
2022/04/15 09:45:19;;;;;;;26.40;20.60;;;;;;;13.15;76.62;100400.38;128435;1288;100192;-74
2022/04/15 09:48:22;;;;;;;27.00;20.70;;;;;;;13.27;76.58;100403.55;128407;1287;100273;-77
2022/04/15 09:51:25;;;;;;;25.10;20.10;;;;;;;13.29;76.37;100402.19;128608;1288;100537;-84
2022/04/15 09:54:29;;;;;;;25.90;20.40;;;;;;;13.31;76.24;100401.36;128236;1288;100543;-81
2022/04/15 09:57:34;;;;;;;25.50;21.50;;;;;;;13.24;76.58;100398.84;128474;1288;102195;-82
2022/04/15 10:00:38;;;;;;;27.80;22.30;;;;;;;13.10;76.14;100401.80;128628;1288;99365;-82
2022/04/15 10:03:45;;;;;;;24.40;19.50;;;;;;;13.01;76.06;100400.30;128694;1288;99372;-81
2022/04/15 10:06:49;;;;;;;25.80;19.80;;;;;;;13.01;76.21;100397.09;128298;1288;100209;-81
2022/04/15 10:09:53;;;;;;;24.80;19.40;;;;;;;12.96;76.60;100401.70;128225;1288;100892;-79
2022/04/15 10:12:58;;;;;;;26.30;20.80;;;;;;;12.83;76.96;100413.78;128434;1288;100542;-83
2022/04/15 10:16:01;;;;;;;26.60;20.50;;;;;;;12.70;77.33;100414.06;128446;1287;100429;-81
2022/04/15 10:19:05;;;;;;;22.20;17.90;;;;;;;12.61;77.30;100416.30;128588;1287;100430;-82
2022/04/15 10:22:07;;;;;;;17.60;14.20;;;;;;;12.54;77.31;100415.91;128662;1288;100256;-82
2022/04/15 10:25:11;;;;;;;18.00;14.10;;;;;;;12.54;77.18;100417.25;128406;1288;101584;-82
2022/04/15 10:28:16;;;;;;;16.10;12.40;;;;;;;12.51;78.02;100421.61;128259;1288;99459;-78
2022/04/15 10:31:19;;;;;;;12.90;10.40;;;;;;;12.47;77.33;100425.63;128306;1288;99350;-78
2022/04/15 10:34:23;;;;;;;6.90;5.40;;;;;;;12.50;77.52;100428.80;128342;1287;99433;-78
2022/04/15 10:37:57;;;;;;;5.90;4.50;;;;;;;12.46;76.78;100426.05;128490;1288;100173;-79
2022/04/15 10:41:14;;;;;;;5.20;3.80;;;;;;;12.44;77.02;100424.70;128469;1288;100179;-79
2022/04/15 10:44:26;;;;;;;4.40;3.10;;;;;;;12.51;76.91;100418.70;128432;1288;100144;-78
2022/04/15 10:47:29;;;;;;;;;;;;;;;12.66;76.71;100411.48;128457;1288;99455;-79
2022/04/15 10:50:33;;;;;;;4.20;3.10;;;;;;;12.89;76.79;100407.78;128384;1287;100161;-78
2022/04/15 10:53:36;;;;;;;5.00;3.50;;;;;;;13.27;76.30;100400.15;128223;1288;99341;-79
2022/04/15 10:56:59;;;;;;;4.80;3.90;;;;;;;13.70;75.86;100396.02;128197;1288;99346;-78
2022/04/15 11:03:30;;;;;;;6.20;4.80;;;;;;;14.08;75.17;100396.20;128271;1288;100297;-78
2022/04/15 11:06:32;;;;;;;5.90;5.20;;;;;;;14.03;75.24;100391.36;127929;1288;99517;-78
2022/04/15 11:09:35;;;;;;;6.10;5.10;;;;;;;13.97;74.92;100390.18;128178;1288;99446;-78
2022/04/15 11:12:43;;;;;;;7.10;5.90;;;;;;;13.95;74.81;100384.84;128188;1288;100586;-78
2022/04/15 11:15:58;;;;;;;6.90;5.20;;;;;;;13.98;74.62;100386.31;128181;1288;123447;-78
2022/04/15 11:19:01;;;;;;;5.90;4.40;;;;;;;14.07;74.96;100386.28;128247;1288;100227;-78
2022/04/15 11:22:04;;;;;;;7.30;5.30;;;;;;;14.20;74.63;100386.45;128192;1288;99463;-79
2022/04/15 11:25:10;;;;;;;8.20;5.60;;;;;;;14.31;74.34;100383.48;128221;1288;100301;-79
2022/04/15 11:28:13;;;;;;;7.50;6.10;;;;;;;14.49;74.46;100382.63;128161;1288;100621;-78
2022/04/15 11:31:24;;;;;;;6.90;5.20;;;;;;;14.75;73.96;100380.80;128255;1288;99374;-79
2022/04/15 11:34:27;;;;;;;6.80;5.50;;;;;;;14.90;73.42;100380.65;128103;1288;99431;-79
2022/04/15 11:37:30;;;;;;;5.70;5.00;;;;;;;14.88;72.86;100382.89;128333;1288;100436;-79
2022/04/15 11:40:35;;;;;;;5.30;4.40;;;;;;;14.66;72.19;100386.10;127836;1288;99369;-80
2022/04/15 11:43:38;;;;;;;6.10;5.10;;;;;;;14.59;72.85;100388.38;128428;1288;124882;-78
2022/04/15 11:46:42;;;;;;;5.20;4.50;;;;;;;14.52;72.62;100384.09;128394;1288;99348;-78
2022/04/15 11:49:47;;;;;;;5.80;5.20;;;;;;;14.43;72.12;100387.13;128454;1288;100713;-78
2022/04/15 11:52:49;;;;;;;7.40;5.10;;;;;;;14.30;72.20;100387.17;128420;1288;99469;-78
2022/04/15 11:55:55;;;;;;;4.80;4.20;;;;;;;14.31;72.41;100389.19;128363;1288;99493;-78
2022/04/15 11:58:57;;;;;;;6.70;5.70;;;;;;;14.23;71.80;100390.76;128278;1288;124830;-78
2022/04/15 12:02:01;;;;;;;7.60;6.10;;;;;;;14.10;71.91;100383.59;128219;1288;99484;-78
2022/04/15 12:05:06;;;;;;;6.00;4.80;;;;;;;14.01;71.85;100386.64;128207;1288;99362;-79
2022/04/15 12:08:09;;;;;;;6.70;5.70;;;;;;;13.92;71.83;100387.09;128157;1288;100334;-74
2022/04/15 12:11:13;;;;;;;6.10;5.50;;;;;;;13.84;71.69;100382.25;128333;1288;100150;-77
2022/04/15 12:14:17;;;;;;;7.60;6.50;;;;;;;13.80;72.10;100375.39;128159;1288;100293;-77
2022/04/15 12:17:22;;;;;;;9.30;6.30;;;;;;;13.79;72.25;100380.02;128234;1288;100544;-77
2022/04/15 12:20:24;;;;;;;13.80;10.20;;;;;;;13.78;72.31;100371.52;128272;1288;100241;-77
2022/04/15 12:23:28;;;;;;;13.60;12.10;;;;;;;13.89;72.39;100372.42;128047;1288;268662;-77
2022/04/15 12:26:45;;;;;;;14.50;11.60;;;;;;;13.98;72.17;100368.94;128141;1288;100542;-77
2022/04/15 12:29:51;;;;;;;7.50;6.70;;;;;;;14.04;71.85;100371.44;128228;1288;100203;-79
2022/04/15 12:33:06;;;;;;;7.40;6.60;;;;;;;14.15;72.17;100367.41;128200;1288;100422;-78
2022/04/15 12:36:09;;;;;;;7.20;6.00;;;;;;;14.30;71.54;100363.66;128299;1288;123582;-78
2022/04/15 12:39:14;;;;;;;7.70;6.90;;;;;;;14.39;71.44;100362.72;128100;1288;99798;-79
2022/04/15 12:42:28;;;;;;;7.70;6.70;;;;;;;14.49;71.61;100358.88;128280;1288;100784;-78
2022/04/15 12:45:31;;;;;;;7.50;6.70;;;;;;;14.53;70.58;100361.02;128252;1288;100248;-76
2022/04/15 12:48:49;;;;;;;7.60;6.60;;;;;;;14.57;71.21;100357.56;128227;1288;125844;-79
2022/04/15 12:51:52;;;;;;;7.70;6.40;;;;;;;14.66;70.91;100356.79;128331;1288;99368;-77
2022/04/15 12:55:01;;;;;;;7.30;6.10;;;;;;;14.69;70.71;100354.42;128490;1288;99450;-77
2022/04/15 12:58:17;;;;;;;6.50;5.90;;;;;;;14.79;70.81;100353.78;128446;1288;100702;-77
2022/04/15 13:01:21;;;;;;;6.50;5.80;;;;;;;14.97;70.85;100344.95;128513;1288;99363;-77
2022/04/15 13:04:23;;;;;;;6.90;6.20;;;;;;;15.05;69.91;100343.59;128284;1288;100331;-77
2022/04/15 13:07:27;;;;;;;8.10;6.20;;;;;;;15.10;69.45;100344.27;128321;1288;100581;-77
2022/04/15 13:10:29;;;;;;;8.50;5.60;;;;;;;15.03;69.44;100347.23;128191;1288;100436;-78
2022/04/15 13:13:32;;;;;;;7.40;5.60;;;;;;;15.06;69.02;100343.01;127883;1290;99386;-79
2022/04/15 13:16:35;;;;;;;5.60;5.10;;;;;;;15.11;68.61;100337.05;128111;1290;100271;-78
2022/04/15 13:19:40;;;;;;;6.20;5.00;;;;;;;15.08;68.39;100338.73;127955;1290;100574;-80
2022/04/15 13:22:45;;;;;;;5.20;4.60;;;;;;;15.12;68.09;100335.96;127974;1288;100382;-78
2022/04/15 13:25:49;;;;;;;6.60;5.60;;;;;;;15.17;67.61;100334.36;128189;1288;123545;-78
2022/04/15 13:28:52;;;;;;;6.50;5.00;;;;;;;15.14;67.42;100332.70;128173;1288;101507;-79
2022/04/15 13:31:55;;;;;;;5.40;4.30;;;;;;;15.16;67.22;100333.52;128140;1288;100098;-81
2022/04/15 13:34:58;;;;;;;5.60;4.40;;;;;;;15.21;66.94;100326.73;128249;1287;101435;-79
2022/04/15 13:38:01;;;;;;;5.80;5.00;;;;;;;15.19;66.83;100324.95;128468;1287;99430;-78
2022/04/15 13:41:05;;;;;;;5.50;4.80;;;;;;;15.21;66.86;100325.05;128542;1288;99373;-79
2022/04/15 13:44:08;;;;;;;4.70;3.60;;;;;;;15.26;66.57;100325.77;128406;1288;122862;-79
2022/04/15 13:47:11;;;;;;;4.60;3.60;;;;;;;15.34;66.48;100325.63;128405;1288;100548;-78
2022/04/15 13:50:14;;;;;;;3.70;3.20;;;;;;;15.51;66.39;100326.95;128299;1288;99368;-78